Northwest Arkansas Regional Airport Fayetteville,Springdale, US
ICAO: KXNA
IATA: XNA
Category: Medium
Scheduled Services: No

Elevation: 1287 ft
TransAlt. 18000 ft.

Airport Communications:
RAZORBACK APP/DEP:121
ASOS:119.425
CTAF:127.1
GND:121.9
JONESBORO RDO:122.55
TWR:127.1
UNICOM:122.95

KXNA Zoom In..

Runways:

(A) RW 16 length 8800 ft width 150 ft
ILS 110.55 / hdg 156

(B) RW 17 length 8800 ft width 150 ft
ILS 111.75 / hdg 156

(C) RW 34 length 8800 ft width 150 ft
ILS 110.55 / hdg 336

(D) RW 35 length 8800 ft width 150 ft
ILS 111.75 / hdg 336

Location; KXNA
Day. 25 / Time. 10.53 Zulu
* Altimeter: 30.09
* Temperature: 12° c. 53.6°f.
* Wind from: 310° Speed 10 kn.
Dewpoint: 06° c.
Visibility: 10 Statute Miles.
Clouds: Broken 12000 ft.

KXNA 251053Z 31010KT 10SM BKN120 12/06 A3009 RMK AO2 PRESRR SLP182 T01170056


Wind From 310°
Speed 10 kn.

  YouTube Music Video
 
jpsmedia.com for Web Design  worldairports.se 2018   terms of use